Rodey, New Mexico
Current Conditions -  °F | °C
As of 4:15 AM on Thursday 18 Dec 2014 (Local Time) from KLRU Reporting Station
Overcast Overcast  
Wind Chill: 32°   Ceiling: 7500
Heat Index: 39°   Visibility: 10mi
Dew Point: 36°   Wind: 10mph
Humidity: 87%   Direction: 260°W
Pressure: 30.13"   Gusts: NA
Location:  32.586°N, 107.171°W
Report Text: KLRU 181115Z AUTO 26009KT 10SM SCT050 OVC075 04/02 A3013 RMK AO2 T00400020
Loading
Personal Weather Stations






























Interactive Weather Map New forecast layout! Learn more

10-Day Weather Forecast

Advertisements
Track Severe Weather on mobile